Terminal Aerodrome Forecast
Issued by NWS Wilmington, OH

Current Version | Previous Version | Graphics & Text | Print | Product List | Glossary On
Versions: 1 2 3 4 5 6 7 8 9 10 11
979
FTUS41 KILN 211736
TAFDAY
TAF
KDAY 211736Z 2118/2218 01010KT P6SM VCSH BKN015 OVC025
     FM211900 02010G18KT P6SM VCSH SCT025 OVC060
     FM212300 34006KT P6SM SCT060
     FM220600 30005KT P6SM FEW070
     FM221600 32010G18KT P6SM SCT050=

USA.gov is the U.S. government's official web portal to all federal, state and local government web resources and services.